TAF LFBE
AMD LFBE 072056Z 0720/0818 CNL=
METAR LFBE
LFBE 080330Z AUTO 23004KT 9999 -DZ FEW030 SCT042 BKN054 06/05 Q1004=
LFBE 080300Z AUTO 21004KT 9999 -RA FEW041/// BKN072/// BKN088/// ///TCU 07/05 Q1004=
LFBE 080230Z AUTO 28016KT 9999 -RA FEW013/// SCT018/// BKN043/// ///TCU 07/06 Q1004=
LFBE 080200Z AUTO 21008KT 170V260 9999 FEW030/// SCT042/// BKN098/// ///TCU 09/07 Q1004=
LFBE 080130Z AUTO 19007KT 9999 BKN035 BKN044 BKN130 09/08 Q1004=
WC LFBE
WS LFBE
WV LFBE